createdAt,value
2018-01-12T00:01:21.702Z,7.13
2018-01-12T00:03:50.023Z,7.00
2018-01-12T00:06:18.356Z,7.30
2018-01-12T00:08:48.320Z,8.27
2018-01-12T00:11:16.625Z,6.80
2018-01-12T00:13:44.936Z,5.17
2018-01-12T00:16:13.256Z,9.37
2018-01-12T00:18:41.657Z,10.60
2018-01-12T00:21:10.948Z,12.33
2018-01-12T00:23:39.280Z,9.50
2018-01-12T00:26:08.358Z,7.73
2018-01-12T00:28:36.706Z,5.63
2018-01-12T00:31:05.041Z,6.00
2018-01-12T00:33:36.058Z,4.50
2018-01-12T00:36:04.384Z,7.10
2018-01-12T00:38:32.702Z,5.83
2018-01-12T00:41:01.018Z,7.37
2018-01-12T00:43:29.348Z,6.03
2018-01-12T00:45:57.711Z,8.50
2018-01-12T00:48:26.136Z,4.77
2018-01-12T00:50:54.467Z,4.97
2018-01-12T00:53:22.794Z,4.50
2018-01-12T00:55:51.892Z,6.00
2018-01-12T00:58:21.016Z,5.63
2018-01-12T01:00:49.372Z,7.43
2018-01-12T01:03:17.761Z,7.10
2018-01-12T01:05:46.898Z,4.83
2018-01-12T01:08:15.260Z,9.13
2018-01-12T01:10:43.575Z,4.47
2018-01-12T01:13:11.909Z,7.80
2018-01-12T01:15:40.240Z,5.00
2018-01-12T01:18:08.566Z,8.60
2018-01-12T01:20:36.892Z,7.90
2018-01-12T01:23:05.224Z,7.47
2018-01-12T01:25:33.540Z,5.93
2018-01-12T01:28:01.877Z,5.60
2018-01-12T01:30:30.217Z,4.77
2018-01-12T01:32:58.545Z,5.50
2018-01-12T01:35:26.857Z,5.20
2018-01-12T01:37:55.183Z,4.97
2018-01-12T01:40:23.544Z,3.63
2018-01-12T01:42:51.849Z,5.57
2018-01-12T01:45:20.204Z,4.50
2018-01-12T01:47:48.532Z,5.23
2018-01-12T01:50:16.862Z,4.70
2018-01-12T01:52:45.179Z,5.07
2018-01-12T01:55:14.267Z,5.20
2018-01-12T01:57:42.613Z,4.50
2018-01-12T02:00:10.958Z,4.77
2018-01-12T02:02:39.282Z,3.80
2018-01-12T02:05:07.613Z,5.18
2018-01-12T02:07:38.531Z,5.93
2018-01-12T02:10:06.909Z,4.87
2018-01-12T02:12:35.217Z,4.87
2018-01-12T02:15:04.324Z,4.17
2018-01-12T02:17:32.660Z,4.03
2018-01-12T02:20:01.032Z,4.43
2018-01-12T02:22:29.369Z,3.00
2018-01-12T02:24:57.705Z,3.20
2018-01-12T02:27:26.809Z,6.50
2018-01-12T02:29:55.190Z,5.50
2018-01-12T02:32:23.507Z,4.23
2018-01-12T02:34:52.607Z,6.27
2018-01-12T02:37:20.941Z,5.70
2018-01-12T02:39:49.276Z,5.53
2018-01-12T02:42:17.625Z,4.97
2018-01-12T02:44:45.950Z,4.40
2018-01-12T02:47:14.293Z,5.07
2018-01-12T02:49:42.619Z,3.70
2018-01-12T02:52:10.966Z,4.30
2018-01-12T02:54:39.300Z,5.00
2018-01-12T02:57:07.623Z,5.47
2018-01-12T02:59:35.980Z,5.43
2018-01-12T03:02:04.321Z,9.00
2018-01-12T03:04:33.420Z,5.80
2018-01-12T03:07:01.738Z,9.13
2018-01-12T03:09:30.067Z,6.77
2018-01-12T03:11:59.174Z,4.73
2018-01-12T03:14:27.526Z,6.93
2018-01-12T03:16:55.842Z,4.87
2018-01-12T03:19:24.181Z,4.73
2018-01-12T03:21:53.283Z,5.60
2018-01-12T03:24:22.655Z,8.27
2018-01-12T03:26:51.092Z,7.90
2018-01-12T03:29:19.445Z,4.60
2018-01-12T03:31:47.762Z,6.63
2018-01-12T03:34:16.128Z,5.83
2018-01-12T03:36:44.439Z,4.87
2018-01-12T03:39:12.785Z,6.50
2018-01-12T03:41:41.236Z,8.27
2018-01-12T03:44:09.560Z,8.00
2018-01-12T03:46:37.904Z,8.03
2018-01-12T03:49:06.996Z,9.37
2018-01-12T03:51:35.319Z,10.30
2018-01-12T03:54:03.661Z,9.73
2018-01-12T03:56:32.057Z,14.23
2018-01-12T03:59:00.408Z,17.37
2018-01-12T04:01:29.508Z,12.13
2018-01-12T04:03:57.827Z,18.60
2018-01-12T04:06:26.183Z,11.40
2018-01-12T04:08:54.518Z,13.93
2018-01-12T04:11:22.843Z,14.40
2018-01-12T04:13:52.893Z,17.00
2018-01-12T04:16:22.137Z,30.93
2018-01-12T04:18:50.472Z,26.83
2018-01-12T04:21:18.816Z,26.63
2018-01-12T04:23:47.152Z,24.57
2018-01-12T04:26:16.546Z,21.17
2018-01-12T04:28:46.227Z,17.97
2018-01-12T04:31:14.550Z,17.43
2018-01-12T04:33:43.646Z,21.70
2018-01-12T04:36:11.985Z,16.47
2018-01-12T04:38:40.314Z,17.10
2018-01-12T04:41:08.767Z,16.30
2018-01-12T04:43:37.121Z,10.70
2018-01-12T04:46:05.458Z,8.30
2018-01-12T04:48:33.788Z,7.17
2018-01-12T04:51:02.136Z,8.00
2018-01-12T04:53:30.511Z,7.13
2018-01-12T04:55:58.822Z,6.37
2018-01-12T04:58:27.153Z,7.03
2018-01-12T05:00:55.484Z,5.83
2018-01-12T05:03:23.816Z,6.30
2018-01-12T05:05:52.149Z,5.27
2018-01-12T05:08:21.273Z,5.97
2018-01-12T05:10:49.607Z,8.07
2018-01-12T05:13:17.950Z,11.10
2018-01-12T05:15:46.313Z,7.77
2018-01-12T05:18:14.701Z,4.60
2018-01-12T05:20:43.041Z,6.30
2018-01-12T05:23:12.165Z,6.27
2018-01-12T05:25:41.611Z,7.28
2018-01-12T05:28:10.403Z,14.07
2018-01-12T05:30:38.743Z,8.60
2018-01-12T05:33:07.074Z,5.67
2018-01-12T05:35:37.441Z,10.90
2018-01-12T05:38:05.777Z,10.77
2018-01-12T05:40:34.132Z,9.00
2018-01-12T05:43:02.446Z,10.13
2018-01-12T05:45:30.812Z,10.07
2018-01-12T05:47:59.949Z,7.83
2018-01-12T05:50:28.286Z,9.87
2018-01-12T05:52:56.662Z,9.00
2018-01-12T05:55:24.980Z,7.73
2018-01-12T05:57:53.307Z,9.27
2018-01-12T06:00:21.631Z,13.50
2018-01-12T06:03:07.523Z,8.37
2018-01-12T06:05:53.530Z,7.10
2018-01-12T06:08:21.843Z,8.57
2018-01-12T06:10:50.253Z,8.37
2018-01-12T06:13:18.606Z,6.63
2018-01-12T06:15:48.855Z,10.13
2018-01-12T06:18:17.179Z,8.97
2018-01-12T06:20:45.503Z,8.57
2018-01-12T06:23:13.823Z,8.23
2018-01-12T06:25:42.151Z,10.20
2018-01-12T06:28:11.239Z,15.17
2018-01-12T06:30:40.356Z,18.37
2018-01-12T06:33:11.459Z,21.67
2018-01-12T06:35:39.801Z,19.33
2018-01-12T06:38:08.121Z,23.53
2018-01-12T06:40:36.465Z,18.37
2018-01-12T06:43:04.784Z,14.00
2018-01-12T06:45:33.866Z,17.13
2018-01-12T06:48:02.192Z,13.40
2018-01-12T06:50:30.599Z,14.98
2018-01-12T06:52:58.982Z,11.40
2018-01-12T06:55:27.329Z,18.00
2018-01-12T06:57:55.661Z,16.83
2018-01-12T07:00:23.991Z,47.33
2018-01-12T07:02:52.334Z,54.03
2018-01-12T07:05:21.451Z,57.33
2018-01-12T07:07:49.784Z,54.13
2018-01-12T07:10:18.135Z,33.83
2018-01-12T07:12:46.474Z,28.53
2018-01-12T07:15:14.810Z,37.50
2018-01-12T07:17:43.164Z,28.43
2018-01-12T07:20:29.070Z,24.00
2018-01-12T07:23:15.028Z,25.87
2018-01-12T07:25:43.374Z,26.63
2018-01-12T07:28:12.476Z,27.07
2018-01-12T07:30:41.973Z,31.03
2018-01-12T07:33:11.080Z,54.60
2018-01-12T07:35:39.424Z,69.90
2018-01-12T07:38:07.752Z,55.17
2018-01-12T07:40:36.109Z,71.77
2018-01-12T07:43:05.206Z,75.77
2018-01-12T07:45:33.666Z,54.80
2018-01-12T07:48:02.004Z,46.33
2018-01-12T07:50:30.335Z,31.63
2018-01-12T07:53:05.255Z,38.80
2018-01-12T07:55:33.656Z,27.97
2018-01-12T07:58:02.079Z,35.73
2018-01-12T08:00:35.968Z,47.70
2018-01-12T08:03:04.308Z,45.87
2018-01-12T08:05:32.662Z,63.67
2018-01-12T08:08:01.005Z,54.17
2018-01-12T08:10:29.355Z,36.60
2018-01-12T08:12:57.679Z,31.00
2018-01-12T08:15:26.034Z,27.10
2018-01-12T08:17:54.359Z,32.20
2018-01-12T08:20:22.751Z,36.30
2018-01-12T08:22:51.845Z,24.50
2018-01-12T08:25:20.365Z,27.27
2018-01-12T08:27:48.681Z,25.73
2018-01-12T08:30:17.002Z,34.73
2018-01-12T08:32:45.336Z,33.00
2018-01-12T08:35:14.413Z,28.43
2018-01-12T08:37:42.737Z,33.10
2018-01-12T08:40:11.071Z,39.97
2018-01-12T08:42:39.425Z,31.27
2018-01-12T08:45:07.763Z,28.87
2018-01-12T08:47:36.895Z,46.10
2018-01-12T08:50:05.218Z,52.47
2018-01-12T08:52:33.559Z,44.80
2018-01-12T08:55:01.916Z,38.97
2018-01-12T08:57:30.233Z,36.37
2018-01-12T08:59:58.583Z,40.80
2018-01-12T09:02:26.910Z,49.17
2018-01-12T09:04:55.292Z,35.87
2018-01-12T09:07:23.634Z,34.87
2018-01-12T09:09:52.302Z,28.50
2018-01-12T09:12:20.649Z,35.67
2018-01-12T09:14:53.351Z,40.23
2018-01-12T09:17:33.226Z,37.40
2018-01-12T09:20:16.232Z,32.28
2018-01-12T09:22:47.710Z,28.83
2018-01-12T09:25:25.799Z,30.63
2018-01-12T09:27:55.886Z,25.60
2018-01-12T09:30:24.205Z,29.43
2018-01-12T09:32:52.544Z,25.93
2018-01-12T09:35:20.882Z,27.27
2018-01-12T09:38:06.890Z,25.40
2018-01-12T09:40:49.012Z,28.50
2018-01-12T09:43:17.340Z,23.47
2018-01-12T09:45:45.682Z,23.08
2018-01-12T09:48:36.719Z,25.80
2018-01-12T09:51:05.068Z,23.03
2018-01-12T09:53:33.411Z,24.87
2018-01-12T09:56:01.756Z,25.03
2018-01-12T09:58:30.088Z,27.80
2018-01-12T10:01:03.316Z,23.90
2018-01-12T10:03:31.629Z,31.57
2018-01-12T10:06:00.765Z,20.90
2018-01-12T10:08:29.085Z,26.53
2018-01-12T10:10:57.423Z,29.70
2018-01-12T10:13:26.542Z,28.52
2018-01-12T10:15:54.873Z,29.97
2018-01-12T10:18:35.151Z,30.03
2018-01-12T10:24:12.813Z,31.40
2018-01-12T10:26:42.885Z,28.27
2018-01-12T10:29:11.265Z,31.53
2018-01-12T10:31:51.336Z,29.50
2018-01-12T10:34:45.307Z,27.33
2018-01-12T10:37:13.650Z,29.30
2018-01-12T10:39:59.541Z,26.33
2018-01-12T10:42:27.874Z,35.47
2018-01-12T10:44:56.224Z,24.70
2018-01-12T10:47:26.205Z,27.57
2018-01-12T10:53:01.946Z,22.63
2018-01-12T10:55:30.277Z,26.73
2018-01-12T10:57:58.602Z,21.03
2018-01-12T11:00:32.642Z,26.67
2018-01-12T11:03:01.730Z,18.30
2018-01-12T11:05:30.053Z,20.20
2018-01-12T11:07:58.379Z,21.00
2018-01-12T11:10:27.475Z,24.27
2018-01-12T11:12:55.856Z,21.17
2018-01-12T11:15:24.177Z,22.70
2018-01-12T11:17:52.520Z,21.10
2018-01-12T11:20:21.610Z,27.27
2018-01-12T11:22:49.946Z,25.77
2018-01-12T11:25:18.261Z,22.43
2018-01-12T11:27:47.396Z,22.43
2018-01-12T11:30:15.734Z,20.00
2018-01-12T11:32:44.960Z,30.57
2018-01-12T11:35:13.365Z,23.07
2018-01-12T11:37:41.706Z,25.07
2018-01-12T11:40:10.864Z,21.67
2018-01-12T11:42:39.202Z,26.50
2018-01-12T11:45:07.544Z,22.07
2018-01-12T11:47:35.900Z,23.77
2018-01-12T11:50:04.246Z,23.70
2018-01-12T11:52:32.561Z,21.97
2018-01-12T11:55:00.883Z,17.73
2018-01-12T11:57:29.220Z,24.03
2018-01-12T11:59:57.569Z,19.70
2018-01-12T12:02:25.904Z,19.43
2018-01-12T12:04:54.240Z,16.97
2018-01-12T12:07:22.566Z,15.47
2018-01-12T12:09:50.904Z,17.20
2018-01-12T12:12:19.249Z,20.47
2018-01-12T12:14:47.588Z,19.45
2018-01-12T12:17:15.933Z,19.33
2018-01-12T12:19:44.309Z,18.73
2018-01-12T12:22:12.637Z,17.73
2018-01-12T12:24:40.966Z,22.40
2018-01-12T12:27:09.313Z,17.80
2018-01-12T12:29:37.656Z,21.40
2018-01-12T12:32:05.995Z,15.07
2018-01-12T12:34:34.331Z,15.73
2018-01-12T12:37:02.674Z,19.13
2018-01-12T12:39:31.022Z,17.23
2018-01-12T12:41:59.375Z,18.40
2018-01-12T12:44:27.720Z,14.87
2018-01-12T12:46:56.053Z,16.67
2018-01-12T12:49:25.133Z,20.03
2018-01-12T12:51:53.591Z,17.30
2018-01-12T12:54:21.940Z,17.23
2018-01-12T12:56:50.304Z,15.90
2018-01-12T12:59:18.649Z,17.70
2018-01-12T13:01:46.970Z,16.53
2018-01-12T13:04:15.327Z,15.80
2018-01-12T13:06:43.646Z,14.97
2018-01-12T13:09:12.714Z,17.73
2018-01-12T13:11:41.042Z,16.30
2018-01-12T13:14:09.380Z,17.83
2018-01-12T13:16:38.484Z,17.23
2018-01-12T13:19:07.351Z,18.43
2018-01-12T13:21:35.683Z,16.50
2018-01-12T13:24:04.057Z,17.63
2018-01-12T13:26:32.400Z,17.70
2018-01-12T13:29:01.897Z,16.23
2018-01-12T13:31:31.008Z,19.80
2018-01-12T13:33:59.370Z,19.33
2018-01-12T13:36:27.716Z,17.07
2018-01-12T13:38:56.389Z,18.37
2018-01-12T13:41:24.720Z,19.17
2018-01-12T13:43:53.051Z,21.90
2018-01-12T13:46:21.359Z,19.80
2018-01-12T13:48:50.472Z,21.63
2018-01-12T13:51:18.806Z,22.33
2018-01-12T13:53:47.127Z,21.20
2018-01-12T13:56:16.224Z,17.30
2018-01-12T13:58:45.313Z,20.27
2018-01-12T14:01:13.638Z,22.17
2018-01-12T14:03:41.982Z,50.27
2018-01-12T14:06:10.302Z,28.60
2018-01-12T14:08:39.089Z,48.97
2018-01-12T14:11:07.450Z,74.60
2018-01-12T14:13:35.783Z,112.28
2018-01-12T14:16:04.116Z,84.80
2018-01-12T14:18:32.455Z,84.37
2018-01-12T14:21:01.567Z,38.43
2018-01-12T14:23:31.783Z,32.86
2018-01-12T14:26:00.118Z,24.87
2018-01-12T14:28:28.458Z,17.60
2018-01-12T14:30:56.782Z,14.90
2018-01-12T14:33:25.111Z,20.03
2018-01-12T14:35:53.460Z,20.63
2018-01-12T14:38:21.800Z,14.80
2018-01-12T14:40:50.162Z,15.70
2018-01-12T14:43:18.504Z,13.10
2018-01-12T14:45:46.870Z,16.50
2018-01-12T14:48:15.205Z,14.03
2018-01-12T14:50:43.527Z,14.98
2018-01-12T14:53:11.882Z,14.03
2018-01-12T14:55:40.973Z,11.90
2018-01-12T14:58:09.300Z,13.43
2018-01-12T15:00:37.644Z,12.02
2018-01-12T15:03:06.742Z,15.13
2018-01-12T15:05:35.079Z,13.63
2018-01-12T15:08:03.411Z,16.00
2018-01-12T15:10:32.117Z,12.77
2018-01-12T15:13:00.463Z,15.30
2018-01-12T15:15:29.592Z,15.80
2018-01-12T15:17:57.953Z,15.00
2018-01-12T15:20:26.291Z,15.53
2018-01-12T15:22:54.625Z,17.67
2018-01-12T15:25:23.736Z,17.00
2018-01-12T15:27:52.072Z,13.57
2018-01-12T15:30:20.412Z,16.63
2018-01-12T15:32:48.747Z,12.93
2018-01-12T15:35:17.086Z,13.20
2018-01-12T15:37:46.200Z,12.40
2018-01-12T15:40:14.530Z,9.90
2018-01-12T15:42:42.875Z,13.60
2018-01-12T15:45:11.225Z,11.70
2018-01-12T15:47:40.303Z,13.80
2018-01-12T15:50:08.663Z,16.20
2018-01-12T15:52:36.994Z,34.10
2018-01-12T15:55:05.327Z,39.07
2018-01-12T15:57:33.663Z,40.87
2018-01-12T16:00:02.014Z,36.50
2018-01-12T16:02:30.342Z,43.90
2018-01-12T16:04:58.975Z,54.53
2018-01-12T16:07:27.309Z,25.63
2018-01-12T16:09:55.654Z,34.30
2018-01-12T16:12:24.005Z,22.83
2018-01-12T16:14:52.346Z,16.63
2018-01-12T16:17:20.679Z,16.80
2018-01-12T16:19:49.041Z,13.83
2018-01-12T16:22:17.372Z,13.60
2018-01-12T16:24:45.714Z,13.40
2018-01-12T16:27:14.053Z,14.10
2018-01-12T16:29:42.401Z,15.80
2018-01-12T16:32:10.747Z,12.10
2018-01-12T16:34:39.075Z,14.73
2018-01-12T16:37:07.400Z,12.80
2018-01-12T16:39:35.758Z,15.13
2018-01-12T16:42:04.077Z,13.47
2018-01-12T16:44:32.385Z,12.57
2018-01-12T16:47:00.719Z,14.97
2018-01-12T16:49:29.057Z,16.27
2018-01-12T16:51:58.169Z,17.37
2018-01-12T16:54:26.520Z,13.40
2018-01-12T16:56:54.864Z,17.10
2018-01-12T16:59:23.192Z,12.10
2018-01-12T17:01:52.286Z,15.30
2018-01-12T17:04:20.632Z,14.80
2018-01-12T17:06:48.967Z,15.40
2018-01-12T17:09:17.292Z,18.30
2018-01-12T17:11:45.641Z,16.30
2018-01-12T17:14:13.977Z,18.23
2018-01-12T17:16:42.303Z,18.07
2018-01-12T17:19:10.611Z,15.53
2018-01-12T17:21:38.939Z,19.67
2018-01-12T17:24:07.255Z,17.80
2018-01-12T17:26:35.608Z,19.13
2018-01-12T17:29:03.948Z,19.57
2018-01-12T17:31:32.279Z,18.10
2018-01-12T17:34:01.480Z,14.63
2018-01-12T17:36:29.829Z,13.73
2018-01-12T17:38:58.177Z,16.20
2018-01-12T17:41:26.499Z,17.03
2018-01-12T17:43:54.830Z,19.83
2018-01-12T17:46:23.213Z,19.57
2018-01-12T17:48:51.549Z,16.37
2018-01-12T17:51:19.919Z,21.53
2018-01-12T17:53:48.274Z,18.80
2018-01-12T17:56:18.058Z,18.33
2018-01-12T17:58:47.411Z,17.53
2018-01-12T18:01:15.778Z,23.23
2018-01-12T18:03:44.190Z,20.90
2018-01-12T18:06:12.564Z,19.93
2018-01-12T18:08:41.715Z,20.43
2018-01-12T18:11:10.032Z,20.30
2018-01-12T18:13:41.142Z,20.50
2018-01-12T18:16:10.727Z,18.33
2018-01-12T18:18:39.677Z,18.50
2018-01-12T18:21:08.021Z,15.87
2018-01-12T18:23:36.603Z,15.60
2018-01-12T18:26:05.199Z,19.23
2018-01-12T18:28:33.725Z,21.43
2018-01-12T18:31:03.560Z,22.47
2018-01-12T18:33:32.407Z,20.53
2018-01-12T18:36:01.552Z,16.80
2018-01-12T18:38:30.619Z,18.50
2018-01-12T18:41:00.036Z,19.20
2018-01-12T18:43:29.390Z,16.60
2018-01-12T18:45:58.687Z,14.77
2018-01-12T18:48:27.949Z,17.00
2018-01-12T18:50:57.623Z,29.43
2018-01-12T18:53:27.388Z,20.17
2018-01-12T18:55:57.146Z,24.93
2018-01-12T18:58:26.841Z,20.83
2018-01-12T19:00:56.607Z,19.80
2018-01-12T19:03:26.277Z,18.17
2018-01-12T19:05:55.992Z,20.47
2018-01-12T19:08:25.781Z,20.60
2018-01-12T19:10:55.564Z,19.23
2018-01-12T19:13:25.367Z,20.50
2018-01-12T19:15:55.117Z,20.90
2018-01-12T19:18:24.984Z,22.60
2018-01-12T19:20:55.687Z,19.80
2018-01-12T19:23:25.556Z,21.77
2018-01-12T19:25:55.441Z,17.73
2018-01-12T19:28:27.110Z,18.50
2018-01-12T19:30:56.966Z,20.93
2018-01-12T19:33:26.736Z,18.70
2018-01-12T19:35:56.632Z,19.47
2018-01-12T19:38:26.569Z,19.10
2018-01-12T19:40:56.372Z,21.40
2018-01-12T19:43:26.171Z,22.20
2018-01-12T19:45:56.048Z,27.27
2018-01-12T19:48:25.980Z,28.43
2018-01-12T19:50:56.771Z,25.17
2018-01-12T19:53:26.665Z,22.37
2018-01-12T19:55:57.036Z,24.93
2018-01-12T19:58:26.829Z,21.40
2018-01-12T20:00:57.492Z,25.47
2018-01-12T20:03:27.308Z,24.50
2018-01-12T20:05:57.334Z,19.90
2018-01-12T20:08:28.094Z,18.83
2018-01-12T20:10:58.381Z,18.27
2018-01-12T20:13:28.916Z,21.27
2018-01-12T20:15:58.914Z,18.33
2018-01-12T20:18:28.868Z,23.10
2018-01-12T20:20:59.342Z,20.77
2018-01-12T20:23:29.183Z,17.80
2018-01-12T20:25:59.192Z,21.02
2018-01-12T20:28:29.973Z,19.37
2018-01-12T20:31:01.683Z,22.80
2018-01-12T20:33:32.401Z,19.43
2018-01-12T20:36:02.331Z,18.97
2018-01-12T20:38:32.213Z,21.47
2018-01-12T20:41:02.474Z,17.20
2018-01-12T20:43:32.359Z,21.00
2018-01-12T20:46:02.254Z,23.47
2018-01-12T20:48:32.086Z,21.23
2018-01-12T20:51:02.018Z,17.63
2018-01-12T20:53:32.540Z,18.93
2018-01-12T20:56:02.456Z,20.57
2018-01-12T20:58:32.317Z,21.33
2018-01-12T21:01:02.195Z,24.73
2018-01-12T21:03:32.969Z,22.53
2018-01-12T21:06:02.885Z,25.80
2018-01-12T21:08:32.931Z,24.37
2018-01-12T21:11:03.710Z,21.17
2018-01-12T21:13:33.595Z,25.10
2018-01-12T21:16:03.602Z,25.37
2018-01-12T21:18:34.249Z,25.23
2018-01-12T21:21:04.172Z,28.30
2018-01-12T21:23:34.063Z,20.73
2018-01-12T21:26:03.900Z,30.43
2018-01-12T21:28:33.716Z,25.53
2018-01-12T21:31:03.591Z,28.80
2018-01-12T21:33:33.382Z,18.60
2018-01-12T21:36:03.272Z,25.93
2018-01-12T21:38:33.129Z,24.17
2018-01-12T21:41:05.119Z,20.47
2018-01-12T21:43:34.988Z,31.27
2018-01-12T21:46:05.878Z,30.03
2018-01-12T21:48:40.910Z,28.30
2018-01-12T21:51:10.774Z,26.87
2018-01-12T21:53:40.627Z,26.53
2018-01-12T21:56:11.103Z,23.50
2018-01-12T21:58:41.681Z,30.73
2018-01-12T22:01:11.644Z,22.47
2018-01-12T22:03:41.517Z,27.40
2018-01-12T22:06:11.365Z,26.17
2018-01-12T22:08:43.852Z,21.20
2018-01-12T22:11:13.808Z,22.00
2018-01-12T22:13:43.727Z,27.20
2018-01-12T22:16:13.537Z,19.33
2018-01-12T22:18:43.541Z,27.97
2018-01-12T22:21:13.443Z,21.20
2018-01-12T22:23:43.321Z,20.53
2018-01-12T22:26:13.115Z,24.07
2018-01-12T22:28:42.915Z,18.77
2018-01-12T22:31:13.102Z,23.13
2018-01-12T22:33:42.851Z,20.13
2018-01-12T22:36:12.744Z,27.03
2018-01-12T22:43:50.637Z,24.37
2018-01-12T22:46:20.257Z,24.20
2018-01-12T22:48:49.986Z,19.83
2018-01-12T22:51:18.951Z,21.60
2018-01-12T22:53:48.589Z,21.57
2018-01-12T22:56:17.102Z,24.70
2018-01-12T22:58:46.800Z,29.17
2018-01-12T23:01:15.204Z,29.83
2018-01-12T23:03:44.714Z,22.55
2018-01-12T23:06:13.066Z,21.40
2018-01-12T23:08:41.436Z,23.83
2018-01-12T23:11:10.425Z,22.67
2018-01-12T23:13:38.759Z,23.50
2018-01-12T23:16:07.121Z,19.57
2018-01-12T23:18:35.473Z,22.77
2018-01-12T23:21:03.836Z,23.20
2018-01-12T23:23:32.174Z,26.97
2018-01-12T23:26:00.522Z,20.57
2018-01-12T23:28:28.857Z,20.57
2018-01-12T23:30:57.209Z,22.90
2018-01-12T23:33:25.539Z,23.07
2018-01-12T23:35:53.866Z,22.40
2018-01-12T23:38:22.198Z,19.63
2018-01-12T23:40:51.318Z,26.67
2018-01-12T23:43:19.662Z,23.00
2018-01-12T23:45:47.991Z,24.67
2018-01-12T23:48:16.338Z,32.03
2018-01-12T23:50:45.434Z,25.23
2018-01-12T23:53:13.759Z,25.27
2018-01-12T23:55:42.939Z,22.83
2018-01-12T23:58:11.260Z,23.17
